Weather at Laoag International Airport

Public forecast

Using degrees Celsius for public forecast. Weather courtesy of forecast.io.

Current aviation weather report (METAR) for Laoag International Airport

Retrieved 2020/11/28 04:00 UTC (22 minutes ago):

RPLI 280400Z 01016KT 9999 SCT018 BKN090 28/23 Q1013 NOSIG RMK A2991

Aviation forecast (TAF) for Laoag International Airport

Retrieved 2020-11-28 00:00 UTC (4 hours ago):

TAF RPLI 272300Z 2800/2824 02013KT 9999 FEW018 BKN290 TEMPO 2804/2810 03021KT FEW018 BKN100